CMP725 MPTO-SBGR
Flight info
| Callsign | CMP725 |
|---|---|
| Flight time | N/A |
| Altitude | 19000 |
| Route | REMAL1A REMAL A574 PONPO/N0465F350 UP530 LOKOS/N0459F370 UP530 PABON UL655 ANRIR UM775 SINIP/N0452F390 UZ82 TITVO UM411 PALCA UZ87 OBLUG UZ42 ZARES |
| Aircraft | B39M/M-SDE1FGHILORVWXY/HB1 |
Departure
| Time | 2026-04-29 20:42 |
|---|---|
| Airport | Tocumen International Airport (MPTO) |
Arrival
| Time | N/A |
|---|---|
| Airport | São Paulo/Guarulhos–Governor André Franco Montoro International Airport (SBGR) |
| Time | Latitude | Longitude | Altitude | Speed | Heading |
|---|---|---|---|---|---|
| 2026-04-29 20:05 | 9.06570 | -79.38630 | 30 ft | 0 kts | 298° |
| 2026-04-29 20:30 | 9.06569 | -79.38630 | 32 ft | 1 kts | 298° |
| 2026-04-29 20:30 | 9.06559 | -79.38608 | 32 ft | 4 kts | 293° |
| 2026-04-29 20:30 | 9.06550 | -79.38583 | 32 ft | 4 kts | 285° |
| 2026-04-29 20:30 | 9.06544 | -79.38556 | 32 ft | 4 kts | 274° |
| 2026-04-29 20:31 | 9.06546 | -79.38530 | 32 ft | 4 kts | 250° |
| 2026-04-29 20:31 | 9.06558 | -79.38513 | 32 ft | 1 kts | 208° |
| 2026-04-29 20:33 | 9.06556 | -79.38515 | 32 ft | 1 kts | 208° |
| 2026-04-29 20:34 | 9.06544 | -79.38521 | 32 ft | 3 kts | 208° |
| 2026-04-29 20:34 | 9.06522 | -79.38533 | 32 ft | 4 kts | 208° |
| 2026-04-29 20:34 | 9.06490 | -79.38550 | 32 ft | 6 kts | 208° |
| 2026-04-29 20:34 | 9.06448 | -79.38573 | 32 ft | 8 kts | 207° |
| 2026-04-29 20:35 | 9.06395 | -79.38600 | 32 ft | 9 kts | 207° |
| 2026-04-29 20:35 | 9.06332 | -79.38618 | 32 ft | 10 kts | 186° |
| 2026-04-29 20:35 | 9.06262 | -79.38623 | 32 ft | 11 kts | 184° |
| 2026-04-29 20:35 | 9.06188 | -79.38631 | 32 ft | 11 kts | 195° |
| 2026-04-29 20:36 | 9.06120 | -79.38665 | 32 ft | 11 kts | 207° |
| 2026-04-29 20:36 | 9.06048 | -79.38705 | 32 ft | 12 kts | 208° |
| 2026-04-29 20:36 | 9.05972 | -79.38749 | 32 ft | 13 kts | 211° |
| 2026-04-29 20:36 | 9.05891 | -79.38798 | 32 ft | 14 kts | 208° |
| 2026-04-29 20:37 | 9.05803 | -79.38847 | 32 ft | 15 kts | 209° |
| 2026-04-29 20:37 | 9.05710 | -79.38899 | 32 ft | 16 kts | 209° |
| 2026-04-29 20:37 | 9.05615 | -79.38956 | 32 ft | 16 kts | 211° |
| 2026-04-29 20:37 | 9.05514 | -79.39015 | 32 ft | 17 kts | 210° |
| 2026-04-29 20:38 | 9.05422 | -79.39069 | 32 ft | 10 kts | 209° |
| 2026-04-29 20:38 | 9.05360 | -79.39104 | 32 ft | 11 kts | 209° |
| 2026-04-29 20:38 | 9.05291 | -79.39143 | 32 ft | 12 kts | 209° |
| 2026-04-29 20:38 | 9.05217 | -79.39185 | 32 ft | 13 kts | 210° |
| 2026-04-29 20:39 | 9.05150 | -79.39224 | 32 ft | 10 kts | 209° |
| 2026-04-29 20:39 | 9.05083 | -79.39262 | 33 ft | 11 kts | 208° |
| 2026-04-29 20:39 | 9.05010 | -79.39302 | 32 ft | 12 kts | 208° |
| 2026-04-29 20:39 | 9.04932 | -79.39348 | 32 ft | 13 kts | 211° |
| 2026-04-29 20:40 | 9.04849 | -79.39371 | 33 ft | 12 kts | 154° |
| 2026-04-29 20:40 | 9.04802 | -79.39310 | 33 ft | 11 kts | 120° |
| 2026-04-29 20:40 | 9.04786 | -79.39252 | 34 ft | 5 kts | 59° |
| 2026-04-29 20:40 | 9.04794 | -79.39246 | 34 ft | 1 kts | 31° |
| 2026-04-29 20:41 | 9.04798 | -79.39244 | 34 ft | 0 kts | 31° |
| 2026-04-29 20:41 | 9.04819 | -79.39231 | 33 ft | 18 kts | 31° |
| 2026-04-29 20:41 | 9.05025 | -79.39114 | 34 ft | 72 kts | 29° |
| 2026-04-29 20:41 | 9.05160 | -79.39038 | 33 ft | 91 kts | 29° |
| 2026-04-29 20:42 | 9.05717 | -79.38719 | 34 ft | 140 kts | 29° |
| 2026-04-29 20:42 | 9.06726 | -79.38145 | 87 ft | 186 kts | 29° |
| 2026-04-29 20:42 | 9.07875 | -79.37506 | 708 ft | 195 kts | 26° |
| 2026-04-29 20:42 | 9.09002 | -79.36894 | 1349 ft | 202 kts | 25° |
| 2026-04-29 20:43 | 9.10076 | -79.36036 | 2201 ft | 206 kts | 54° |
| 2026-04-29 20:43 | 9.10527 | -79.34639 | 2912 ft | 210 kts | 80° |
| 2026-04-29 20:43 | 9.10463 | -79.33176 | 3685 ft | 209 kts | 98° |
| 2026-04-29 20:43 | 9.10075 | -79.31722 | 4149 ft | 221 kts | 103° |
| 2026-04-29 20:44 | 9.09637 | -79.30183 | 4605 ft | 230 kts | 103° |
| 2026-04-29 20:44 | 9.09179 | -79.28580 | 5068 ft | 248 kts | 104° |
| 2026-04-29 20:44 | 9.08680 | -79.26831 | 5531 ft | 266 kts | 104° |
| 2026-04-29 20:44 | 9.08156 | -79.25012 | 6312 ft | 269 kts | 105° |
| 2026-04-29 20:45 | 9.07623 | -79.23177 | 6907 ft | 274 kts | 105° |
| 2026-04-29 20:45 | 9.07085 | -79.21330 | 6985 ft | 279 kts | 105° |
| 2026-04-29 20:45 | 9.06534 | -79.19417 | 7611 ft | 286 kts | 105° |
| 2026-04-29 20:45 | 9.05975 | -79.17481 | 8422 ft | 288 kts | 105° |
| 2026-04-29 20:46 | 9.05411 | -79.15526 | 9195 ft | 292 kts | 105° |
| 2026-04-29 20:46 | 9.04837 | -79.13540 | 9953 ft | 294 kts | 105° |
| 2026-04-29 20:46 | 9.04258 | -79.11536 | 10530 ft | 303 kts | 106° |
| 2026-04-29 20:46 | 9.03650 | -79.09428 | 10869 ft | 320 kts | 106° |
| 2026-04-29 20:47 | 9.03010 | -79.07215 | 11168 ft | 337 kts | 106° |
| 2026-04-29 20:47 | 9.02337 | -79.04887 | 11498 ft | 350 kts | 106° |
| 2026-04-29 20:47 | 9.01650 | -79.02510 | 12122 ft | 352 kts | 106° |
| 2026-04-29 20:47 | 9.01198 | -79.00944 | 12584 ft | 353 kts | 107° |
| 2026-04-29 20:48 | 9.00267 | -78.97727 | 13361 ft | 358 kts | 107° |
| 2026-04-29 20:48 | 8.99566 | -78.95304 | 13921 ft | 360 kts | 107° |
| 2026-04-29 20:48 | 8.98859 | -78.92862 | 14411 ft | 364 kts | 107° |
| 2026-04-29 20:48 | 8.98145 | -78.90395 | 14907 ft | 366 kts | 107° |
| 2026-04-29 20:49 | 8.97668 | -78.88748 | 15218 ft | 369 kts | 107° |
| 2026-04-29 20:49 | 8.96945 | -78.86252 | 15709 ft | 371 kts | 107° |
| 2026-04-29 20:49 | 8.95969 | -78.82882 | 16362 ft | 375 kts | 107° |
| 2026-04-29 20:49 | 8.95241 | -78.80369 | 16821 ft | 378 kts | 107° |
| 2026-04-29 20:50 | 8.94500 | -78.77814 | 17276 ft | 380 kts | 107° |
| 2026-04-29 20:50 | 8.93754 | -78.75239 | 17713 ft | 383 kts | 107° |
| 2026-04-29 20:50 | 8.93003 | -78.72648 | 18122 ft | 386 kts | 107° |
| 2026-04-29 20:50 | 8.92243 | -78.70031 | 18497 ft | 388 kts | 107° |
| 2026-04-29 20:51 | 8.91738 | -78.68288 | 18726 ft | 391 kts | 107° |
| 2026-04-29 20:51 | 8.90971 | -78.65645 | 19055 ft | 394 kts | 107° |
| 2026-04-29 20:51 | 8.90194 | -78.62972 | 19384 ft | 397 kts | 107° |
| 2026-04-29 20:51 | 8.89413 | -78.60282 | 19713 ft | 401 kts | 108° |
| 2026-04-29 20:52 | 8.88625 | -78.57568 | 20043 ft | 403 kts | 107° |
| 2026-04-29 20:52 | 8.87832 | -78.54840 | 20377 ft | 406 kts | 108° |
| 2026-04-29 20:52 | 8.87030 | -78.52081 | 20692 ft | 409 kts | 107° |
| 2026-04-29 20:52 | 8.86227 | -78.49319 | 21043 ft | 412 kts | 107° |
| 2026-04-29 20:53 | 8.85412 | -78.46516 | 21364 ft | 415 kts | 107° |
| 2026-04-29 20:53 | 8.84593 | -78.43703 | 21692 ft | 417 kts | 107° |
| 2026-04-29 20:53 | 8.83772 | -78.40881 | 22007 ft | 420 kts | 107° |
| 2026-04-29 20:53 | 8.82945 | -78.38039 | 22334 ft | 422 kts | 107° |
| 2026-04-29 20:54 | 8.81279 | -78.32320 | 23008 ft | 427 kts | 107° |
| 2026-04-29 20:54 | 8.80435 | -78.29419 | 23321 ft | 429 kts | 107° |
| 2026-04-29 20:54 | 8.79587 | -78.26514 | 23595 ft | 432 kts | 107° |
| 2026-04-29 20:55 | 8.78736 | -78.23594 | 23877 ft | 433 kts | 107° |
| 2026-04-29 20:55 | 8.77891 | -78.20697 | 24180 ft | 435 kts | 107° |
| 2026-04-29 20:55 | 8.77026 | -78.17732 | 24467 ft | 436 kts | 107° |
| 2026-04-29 20:55 | 8.76175 | -78.14816 | 24751 ft | 438 kts | 107° |
| 2026-04-29 20:56 | 8.75299 | -78.11814 | 25056 ft | 439 kts | 107° |
| 2026-04-29 20:56 | 8.74443 | -78.08885 | 25331 ft | 441 kts | 108° |
| 2026-04-29 20:56 | 8.73576 | -78.05913 | 25595 ft | 443 kts | 108° |
| 2026-04-29 20:56 | 8.72700 | -78.02916 | 25874 ft | 444 kts | 108° |
| 2026-04-29 20:57 | 8.71822 | -77.99913 | 26152 ft | 446 kts | 108° |
| 2026-04-29 20:57 | 8.70941 | -77.96900 | 26426 ft | 447 kts | 108° |
| 2026-04-29 20:57 | 8.70058 | -77.93881 | 26690 ft | 449 kts | 108° |
| 2026-04-29 20:57 | 8.69169 | -77.90842 | 26959 ft | 451 kts | 108° |
| 2026-04-29 20:58 | 8.68280 | -77.87804 | 27224 ft | 452 kts | 108° |
| 2026-04-29 20:58 | 8.67383 | -77.84742 | 27483 ft | 454 kts | 108° |
| 2026-04-29 20:58 | 8.66497 | -77.81714 | 27735 ft | 456 kts | 108° |
| 2026-04-29 20:58 | 8.65596 | -77.78641 | 27985 ft | 457 kts | 108° |
| 2026-04-29 20:59 | 8.64692 | -77.75552 | 28235 ft | 459 kts | 108° |
| 2026-04-29 20:59 | 8.63782 | -77.72450 | 28471 ft | 461 kts | 108° |
| 2026-04-29 20:59 | 8.62871 | -77.69342 | 28719 ft | 462 kts | 108° |
| 2026-04-29 20:59 | 8.61955 | -77.66220 | 28959 ft | 464 kts | 108° |
| 2026-04-29 21:00 | 8.61034 | -77.63082 | 29192 ft | 466 kts | 108° |
| 2026-04-29 21:00 | 8.60112 | -77.59941 | 29439 ft | 468 kts | 108° |
| 2026-04-29 21:00 | 8.59184 | -77.56776 | 29664 ft | 469 kts | 108° |
| 2026-04-29 21:00 | 8.58253 | -77.53610 | 29882 ft | 471 kts | 108° |
| 2026-04-29 21:01 | 8.57320 | -77.50434 | 30069 ft | 473 kts | 108° |
| 2026-04-29 21:01 | 8.56381 | -77.47241 | 30285 ft | 473 kts | 108° |
| 2026-04-29 21:01 | 8.55393 | -77.44072 | 30473 ft | 473 kts | 114° |
| 2026-04-29 21:01 | 8.53816 | -77.41183 | 30643 ft | 469 kts | 130° |
| 2026-04-29 21:02 | 8.51624 | -77.38765 | 30824 ft | 467 kts | 137° |
| 2026-04-29 21:02 | 8.49303 | -77.36450 | 30946 ft | 470 kts | 137° |
| 2026-04-29 21:02 | 8.46961 | -77.34162 | 31166 ft | 469 kts | 138° |
| 2026-04-29 21:02 | 8.44600 | -77.31884 | 31367 ft | 470 kts | 138° |
| 2026-04-29 21:03 | 8.42225 | -77.29611 | 31610 ft | 469 kts | 138° |
| 2026-04-29 21:03 | 8.39852 | -77.27347 | 31899 ft | 467 kts | 138° |
| 2026-04-29 21:03 | 8.37497 | -77.25103 | 32179 ft | 466 kts | 139° |
| 2026-04-29 21:03 | 8.35144 | -77.22861 | 32459 ft | 464 kts | 138° |
| 2026-04-29 21:04 | 8.32789 | -77.20617 | 32720 ft | 463 kts | 139° |
| 2026-04-29 21:04 | 8.28113 | -77.16164 | 32805 ft | 461 kts | 138° |
| 2026-04-29 21:05 | 8.23439 | -77.11714 | 32804 ft | 460 kts | 138° |
| 2026-04-29 21:05 | 8.18777 | -77.07277 | 32804 ft | 460 kts | 139° |
| 2026-04-29 21:06 | 8.16281 | -77.04902 | 32802 ft | 460 kts | 139° |
| 2026-04-29 21:06 | 8.13068 | -77.01847 | 32801 ft | 460 kts | 139° |
| 2026-04-29 21:07 | 8.08406 | -76.97412 | 32801 ft | 460 kts | 139° |
| 2026-04-29 21:07 | 8.03734 | -76.92971 | 32801 ft | 460 kts | 139° |
| 2026-04-29 21:08 | 7.99075 | -76.88544 | 32799 ft | 460 kts | 139° |
| 2026-04-29 21:08 | 7.94431 | -76.84131 | 32801 ft | 460 kts | 139° |
| 2026-04-29 21:09 | 7.89763 | -76.79697 | 32802 ft | 460 kts | 139° |
| 2026-04-29 21:09 | 7.85098 | -76.75268 | 32803 ft | 460 kts | 139° |
| 2026-04-29 21:10 | 7.80263 | -76.71079 | 32807 ft | 457 kts | 147° |
| 2026-04-29 21:10 | 7.75066 | -76.67363 | 32804 ft | 457 kts | 147° |
| 2026-04-29 21:11 | 7.69869 | -76.63659 | 32804 ft | 458 kts | 147° |
| 2026-04-29 21:11 | 7.64696 | -76.59975 | 32803 ft | 458 kts | 147° |
| 2026-04-29 21:12 | 7.59488 | -76.56267 | 32816 ft | 459 kts | 147° |
| 2026-04-29 21:12 | 7.54263 | -76.52549 | 32824 ft | 459 kts | 147° |
| 2026-04-29 21:13 | 7.48936 | -76.49019 | 32837 ft | 459 kts | 150° |
| 2026-04-29 21:13 | 7.43527 | -76.45558 | 32843 ft | 460 kts | 150° |
| 2026-04-29 21:14 | 7.38134 | -76.42090 | 32851 ft | 461 kts | 150° |
| 2026-04-29 21:14 | 7.32715 | -76.38602 | 32857 ft | 462 kts | 150° |
| 2026-04-29 21:15 | 7.27262 | -76.35094 | 32871 ft | 463 kts | 150° |
| 2026-04-29 21:15 | 7.21829 | -76.31601 | 32877 ft | 463 kts | 149° |
| 2026-04-29 21:16 | 7.16382 | -76.28099 | 32894 ft | 464 kts | 149° |
| 2026-04-29 21:16 | 7.10969 | -76.24619 | 32896 ft | 465 kts | 149° |
| 2026-04-29 21:17 | 7.05517 | -76.21117 | 32906 ft | 465 kts | 149° |
| 2026-04-29 21:17 | 7.00057 | -76.17610 | 32908 ft | 465 kts | 149° |
| 2026-04-29 21:18 | 6.94594 | -76.14102 | 32923 ft | 466 kts | 149° |
| 2026-04-29 21:18 | 6.89118 | -76.10587 | 32922 ft | 466 kts | 149° |
| 2026-04-29 21:19 | 6.83656 | -76.07081 | 32933 ft | 466 kts | 149° |
| 2026-04-29 21:19 | 6.78175 | -76.03565 | 32928 ft | 467 kts | 149° |
| 2026-04-29 21:20 | 6.72687 | -76.00044 | 32931 ft | 467 kts | 149° |
| 2026-04-29 21:20 | 6.67238 | -75.96550 | 32931 ft | 467 kts | 149° |
| 2026-04-29 21:21 | 6.61749 | -75.93031 | 32928 ft | 468 kts | 149° |
| 2026-04-29 21:21 | 6.56264 | -75.89516 | 32927 ft | 467 kts | 149° |
| 2026-04-29 21:22 | 6.50775 | -75.85999 | 32924 ft | 467 kts | 148° |
| 2026-04-29 21:22 | 6.45294 | -75.82487 | 32931 ft | 467 kts | 148° |
| 2026-04-29 21:23 | 6.39823 | -75.78983 | 32950 ft | 466 kts | 148° |
| 2026-04-29 21:23 | 6.34354 | -75.75482 | 32974 ft | 465 kts | 148° |
| 2026-04-29 21:24 | 6.28895 | -75.71988 | 33001 ft | 465 kts | 148° |
| 2026-04-29 21:24 | 6.23425 | -75.68488 | 33016 ft | 465 kts | 148° |
| 2026-04-29 21:25 | 6.17967 | -75.64996 | 33016 ft | 465 kts | 148° |
| 2026-04-29 21:25 | 6.12507 | -75.61504 | 33013 ft | 465 kts | 148° |
| 2026-04-29 21:26 | 6.07040 | -75.58008 | 32995 ft | 465 kts | 148° |
| 2026-04-29 21:26 | 6.01581 | -75.54518 | 33099 ft | 465 kts | 148° |
| 2026-04-29 21:27 | 5.97043 | -75.51618 | 33077 ft | 465 kts | 148° |
| 2026-04-29 21:27 | 5.91575 | -75.48123 | 33040 ft | 465 kts | 148° |
| 2026-04-29 21:28 | 5.86116 | -75.44636 | 32992 ft | 465 kts | 148° |
| 2026-04-29 21:28 | 5.81297 | -75.41558 | 32946 ft | 465 kts | 148° |
| 2026-04-29 21:29 | 5.75766 | -75.38026 | 32940 ft | 466 kts | 148° |
| 2026-04-29 21:29 | 5.70786 | -75.34847 | 32944 ft | 465 kts | 148° |
| 2026-04-29 21:30 | 5.66543 | -75.32138 | 32942 ft | 466 kts | 148° |
| 2026-04-29 21:30 | 5.61072 | -75.28647 | 32943 ft | 465 kts | 148° |
| 2026-04-29 21:31 | 5.55604 | -75.25157 | 32950 ft | 465 kts | 148° |
| 2026-04-29 21:31 | 5.50173 | -75.21693 | 32959 ft | 465 kts | 148° |
| 2026-04-29 21:32 | 5.44715 | -75.18212 | 32960 ft | 464 kts | 148° |
| 2026-04-29 21:32 | 5.39253 | -75.14730 | 32935 ft | 464 kts | 148° |
| 2026-04-29 21:33 | 5.33802 | -75.11254 | 32893 ft | 464 kts | 147° |
| 2026-04-29 21:33 | 5.28353 | -75.07782 | 32854 ft | 463 kts | 147° |
| 2026-04-29 21:34 | 5.22911 | -75.04315 | 32820 ft | 463 kts | 147° |
| 2026-04-29 21:34 | 5.17503 | -75.00869 | 32800 ft | 463 kts | 147° |
| 2026-04-29 21:35 | 5.12053 | -74.97398 | 32800 ft | 463 kts | 147° |
| 2026-04-29 21:35 | 5.06779 | -74.94039 | 32814 ft | 463 kts | 147° |
| 2026-04-29 21:36 | 5.01575 | -74.90725 | 32834 ft | 463 kts | 147° |
| 2026-04-29 21:36 | 4.96133 | -74.87261 | 32858 ft | 463 kts | 147° |
| 2026-04-29 21:37 | 4.90690 | -74.83797 | 32884 ft | 463 kts | 147° |
| 2026-04-29 21:37 | 4.85255 | -74.80339 | 32897 ft | 463 kts | 147° |
| 2026-04-29 21:38 | 4.79783 | -74.76858 | 32887 ft | 464 kts | 147° |
| 2026-04-29 21:38 | 4.74317 | -74.73381 | 32895 ft | 465 kts | 147° |
| 2026-04-29 21:39 | 4.68855 | -74.69908 | 32900 ft | 465 kts | 147° |
| 2026-04-29 21:39 | 4.63413 | -74.66447 | 32901 ft | 466 kts | 147° |
| 2026-04-29 21:40 | 4.57934 | -74.62964 | 32895 ft | 467 kts | 147° |
| 2026-04-29 21:40 | 4.52434 | -74.59468 | 32888 ft | 468 kts | 147° |
| 2026-04-29 21:41 | 4.47151 | -74.56111 | 32888 ft | 468 kts | 148° |
| 2026-04-29 21:41 | 4.41691 | -74.52642 | 32893 ft | 468 kts | 148° |
| 2026-04-29 21:42 | 4.39774 | -74.51425 | 32902 ft | 468 kts | 148° |
| 2026-04-29 21:42 | 4.34279 | -74.47933 | 32926 ft | 467 kts | 147° |
| 2026-04-29 21:43 | 4.28791 | -74.44448 | 32960 ft | 467 kts | 147° |
| 2026-04-29 21:43 | 4.23297 | -74.40959 | 32989 ft | 467 kts | 147° |
| 2026-04-29 21:44 | 4.17806 | -74.37473 | 33009 ft | 467 kts | 147° |
| 2026-04-29 21:44 | 4.12354 | -74.34012 | 33028 ft | 467 kts | 147° |
| 2026-04-29 21:45 | 4.06858 | -74.30524 | 33044 ft | 467 kts | 147° |
| 2026-04-29 21:45 | 4.01374 | -74.27045 | 33048 ft | 467 kts | 147° |
| 2026-04-29 21:46 | 3.95876 | -74.23556 | 33055 ft | 467 kts | 147° |
| 2026-04-29 21:46 | 3.90385 | -74.20073 | 33051 ft | 468 kts | 147° |
| 2026-04-29 21:47 | 3.84879 | -74.16580 | 33044 ft | 469 kts | 147° |
| 2026-04-29 21:47 | 3.79373 | -74.13088 | 33033 ft | 469 kts | 147° |
| 2026-04-29 21:48 | 3.73879 | -74.09605 | 33011 ft | 470 kts | 147° |
| 2026-04-29 21:48 | 3.68356 | -74.06103 | 32993 ft | 470 kts | 147° |
| 2026-04-29 21:49 | 3.62838 | -74.02606 | 32971 ft | 470 kts | 147° |
| 2026-04-29 21:49 | 3.57295 | -73.99092 | 32949 ft | 471 kts | 148° |
| 2026-04-29 21:50 | 3.51748 | -73.95577 | 32932 ft | 472 kts | 148° |
| 2026-04-29 21:50 | 3.46195 | -73.92059 | 32912 ft | 472 kts | 148° |
| 2026-04-29 21:51 | 3.40639 | -73.88539 | 32899 ft | 473 kts | 148° |
| 2026-04-29 21:51 | 3.32290 | -73.83251 | 32884 ft | 474 kts | 148° |
| 2026-04-29 21:52 | 3.26717 | -73.79721 | 32870 ft | 474 kts | 148° |
| 2026-04-29 21:52 | 3.21143 | -73.76192 | 32862 ft | 474 kts | 148° |
| 2026-04-29 21:53 | 3.15560 | -73.72657 | 32861 ft | 475 kts | 148° |
| 2026-04-29 21:53 | 3.09980 | -73.69124 | 32857 ft | 475 kts | 148° |
| 2026-04-29 21:54 | 3.04418 | -73.65604 | 32855 ft | 476 kts | 148° |
| 2026-04-29 21:54 | 2.98821 | -73.62061 | 32852 ft | 477 kts | 148° |
| 2026-04-29 21:55 | 2.93201 | -73.58505 | 32851 ft | 478 kts | 148° |
| 2026-04-29 21:55 | 2.87581 | -73.54949 | 32851 ft | 479 kts | 148° |
| 2026-04-29 21:56 | 2.81953 | -73.51388 | 32851 ft | 480 kts | 148° |
| 2026-04-29 21:56 | 2.76304 | -73.47815 | 32847 ft | 480 kts | 148° |
| 2026-04-29 21:57 | 2.70665 | -73.44248 | 32846 ft | 479 kts | 147° |
| 2026-04-29 21:57 | 2.65035 | -73.40687 | 32843 ft | 479 kts | 147° |
| 2026-04-29 21:58 | 2.59399 | -73.37123 | 32843 ft | 479 kts | 147° |
| 2026-04-29 21:58 | 2.53777 | -73.33568 | 32842 ft | 478 kts | 147° |
| 2026-04-29 21:59 | 2.48141 | -73.30005 | 32842 ft | 478 kts | 147° |
| 2026-04-29 21:59 | 2.42502 | -73.26440 | 32842 ft | 478 kts | 147° |
| 2026-04-29 22:00 | 2.36911 | -73.22906 | 32843 ft | 479 kts | 147° |
| 2026-04-29 22:00 | 2.31240 | -73.19322 | 32844 ft | 479 kts | 147° |
| 2026-04-29 22:01 | 2.27500 | -73.16958 | 32844 ft | 480 kts | 147° |